createdAt,value
2018-07-08T00:00:08.444Z,20.30
2018-07-08T00:02:37.117Z,20.20
2018-07-08T00:05:05.852Z,20.10
2018-07-08T00:07:34.506Z,20.10
2018-07-08T00:10:03.222Z,20.20
2018-07-08T00:12:32.011Z,20.10
2018-07-08T00:15:00.781Z,19.90
2018-07-08T00:17:29.589Z,20.00
2018-07-08T00:19:58.427Z,20.00
2018-07-08T00:22:27.068Z,20.10
2018-07-08T00:24:55.701Z,20.00
2018-07-08T00:27:24.424Z,20.00
2018-07-08T00:29:53.137Z,20.00
2018-07-08T00:32:21.860Z,20.00
2018-07-08T00:34:50.572Z,19.90
2018-07-08T00:37:19.435Z,19.90
2018-07-08T00:39:48.131Z,19.90
2018-07-08T00:42:16.979Z,19.90
2018-07-08T00:44:45.677Z,19.80
2018-07-08T00:47:14.336Z,19.80
2018-07-08T00:49:43.001Z,19.80
2018-07-08T00:52:11.915Z,19.80
2018-07-08T00:54:40.701Z,19.70
2018-07-08T00:57:09.517Z,19.70
2018-07-08T00:59:38.200Z,19.50
2018-07-08T01:02:07.015Z,19.50
2018-07-08T01:04:35.781Z,19.60
2018-07-08T01:07:04.546Z,19.30
2018-07-08T01:09:33.378Z,19.40
2018-07-08T01:12:02.157Z,19.50
2018-07-08T01:14:30.918Z,19.40
2018-07-08T01:16:59.724Z,19.40
2018-07-08T01:19:28.738Z,19.40
2018-07-08T01:21:57.516Z,19.40
2018-07-08T01:24:26.261Z,19.40
2018-07-08T01:26:54.921Z,19.40
2018-07-08T01:29:23.621Z,19.40
2018-07-08T01:31:52.440Z,19.30
2018-07-08T01:34:21.169Z,19.30
2018-07-08T01:39:18.217Z,19.30
2018-07-08T01:41:46.882Z,19.20
2018-07-08T01:44:15.611Z,19.20
2018-07-08T01:46:44.348Z,19.20
2018-07-08T01:49:13.001Z,19.20
2018-07-08T01:51:41.669Z,19.10
2018-07-08T01:54:10.372Z,19.00
2018-07-08T01:56:39.225Z,19.00
2018-07-08T01:59:07.957Z,19.00
2018-07-08T02:01:36.690Z,18.90
2018-07-08T02:04:05.790Z,18.90
2018-07-08T02:06:34.511Z,19.00
2018-07-08T02:09:03.504Z,18.90
2018-07-08T02:11:32.560Z,18.90
2018-07-08T02:14:01.433Z,18.90
2018-07-08T02:16:30.244Z,18.90
2018-07-08T02:18:58.929Z,18.70
2018-07-08T02:21:28.005Z,18.70
2018-07-08T02:23:56.838Z,18.70
2018-07-08T02:26:25.657Z,18.70
2018-07-08T02:28:54.801Z,18.70
2018-07-08T02:31:23.485Z,18.80
2018-07-08T02:33:52.326Z,18.70
2018-07-08T02:36:21.135Z,18.70
2018-07-08T02:38:49.861Z,18.70
2018-07-08T02:41:18.610Z,18.60
2018-07-08T02:43:47.430Z,18.60
2018-07-08T02:46:16.270Z,18.50
2018-07-08T02:48:44.941Z,18.50
2018-07-08T02:51:13.673Z,18.40
2018-07-08T02:53:42.369Z,18.40
2018-07-08T02:56:11.137Z,18.40
2018-07-08T02:58:39.780Z,18.40
2018-07-08T03:01:08.419Z,18.40
2018-07-08T03:03:37.072Z,18.40
2018-07-08T03:06:05.985Z,18.20
2018-07-08T03:08:34.782Z,18.20
2018-07-08T03:11:03.576Z,18.20
2018-07-08T03:13:32.358Z,18.20
2018-07-08T03:16:01.028Z,18.20
2018-07-08T03:18:29.958Z,18.20
2018-07-08T03:20:58.651Z,18.20
2018-07-08T03:23:27.352Z,18.20
2018-07-08T03:28:24.345Z,18.20
2018-07-08T03:30:52.979Z,18.10
2018-07-08T03:33:21.961Z,18.10
2018-07-08T03:35:50.808Z,18.10
2018-07-08T03:38:19.625Z,18.00
2018-07-08T03:40:48.288Z,17.80
2018-07-08T03:43:16.970Z,17.60
2018-07-08T03:45:45.646Z,17.80
2018-07-08T03:48:14.473Z,17.80
2018-07-08T03:50:43.092Z,17.70
2018-07-08T03:53:11.775Z,17.80
2018-07-08T03:55:40.507Z,17.80
2018-07-08T03:58:09.141Z,17.80
2018-07-08T04:00:37.796Z,17.90
2018-07-08T04:03:06.646Z,18.00
2018-07-08T04:05:35.359Z,18.00
2018-07-08T04:08:04.128Z,17.80
2018-07-08T04:10:32.988Z,17.80
2018-07-08T04:13:02.274Z,17.80
2018-07-08T04:15:31.177Z,17.90
2018-07-08T04:18:04.368Z,18.00
2018-07-08T04:20:33.075Z,17.90
2018-07-08T04:23:02.097Z,18.00
2018-07-08T04:25:31.000Z,18.00
2018-07-08T04:27:59.821Z,18.10
2018-07-08T04:30:29.074Z,18.30
2018-07-08T04:32:57.740Z,18.50
2018-07-08T04:35:26.689Z,18.50
2018-07-08T04:37:55.421Z,18.70
2018-07-08T04:42:52.457Z,18.70
2018-07-08T04:45:21.165Z,18.80
2018-07-08T04:47:49.830Z,18.80
2018-07-08T04:50:18.546Z,19.00
2018-07-08T04:52:47.480Z,18.80
2018-07-08T04:55:16.261Z,19.10
2018-07-08T04:57:44.985Z,19.00
2018-07-08T05:00:13.700Z,19.10
2018-07-08T05:02:42.365Z,19.20
2018-07-08T05:05:11.153Z,19.40
2018-07-08T05:07:40.481Z,19.40
2018-07-08T05:10:09.525Z,19.50
2018-07-08T05:12:38.422Z,19.20
2018-07-08T05:15:07.121Z,19.30
2018-07-08T05:17:35.797Z,19.50
2018-07-08T05:20:04.551Z,19.40
2018-07-08T05:22:33.275Z,19.50
2018-07-08T05:25:02.022Z,19.60
2018-07-08T05:27:32.092Z,19.50
2018-07-08T05:30:00.747Z,19.70
2018-07-08T05:32:29.432Z,19.70
2018-07-08T05:34:58.238Z,19.80
2018-07-08T05:37:27.009Z,19.60
2018-07-08T05:39:55.745Z,19.80
2018-07-08T05:42:24.372Z,19.80
2018-07-08T05:44:53.117Z,19.90
2018-07-08T05:47:21.861Z,19.80
2018-07-08T05:49:50.664Z,19.70
2018-07-08T05:52:19.416Z,19.80
2018-07-08T05:54:48.017Z,19.90
2018-07-08T05:57:17.389Z,20.20
2018-07-08T05:59:46.102Z,20.10
2018-07-08T06:02:15.192Z,19.90
2018-07-08T06:04:43.961Z,19.70
2018-07-08T06:07:12.637Z,20.10
2018-07-08T06:09:41.294Z,20.20
2018-07-08T06:12:10.085Z,20.50
2018-07-08T06:14:38.768Z,20.80
2018-07-08T06:17:07.678Z,20.60
2018-07-08T06:19:36.555Z,20.80
2018-07-08T06:22:05.346Z,20.60
2018-07-08T06:24:34.107Z,20.30
2018-07-08T06:27:02.923Z,20.40
2018-07-08T06:29:31.629Z,20.10
2018-07-08T06:32:00.408Z,20.40
2018-07-08T06:34:29.083Z,20.40
2018-07-08T06:36:57.884Z,20.40
2018-07-08T06:39:26.631Z,20.70
2018-07-08T06:41:55.446Z,21.00
2018-07-08T06:44:24.081Z,21.20
2018-07-08T06:46:52.764Z,20.90
2018-07-08T06:49:21.598Z,21.00
2018-07-08T06:51:50.284Z,20.90
2018-07-08T06:54:19.047Z,21.10
2018-07-08T06:56:47.690Z,21.20
2018-07-08T06:59:16.372Z,21.50
2018-07-08T07:01:45.024Z,21.60
2018-07-08T07:04:13.971Z,21.60
2018-07-08T07:06:42.651Z,21.60
2018-07-08T07:11:42.065Z,21.90
2018-07-08T07:14:10.744Z,22.00
2018-07-08T07:16:39.517Z,21.80
2018-07-08T07:19:08.185Z,21.70
2018-07-08T07:21:36.929Z,21.70
2018-07-08T07:24:06.166Z,21.50
2018-07-08T07:26:34.865Z,21.20
2018-07-08T07:29:03.844Z,21.20
2018-07-08T07:31:32.585Z,21.30
2018-07-08T07:34:01.373Z,20.90
2018-07-08T07:36:30.026Z,21.00
2018-07-08T07:38:58.727Z,21.00
2018-07-08T07:41:27.381Z,21.30
2018-07-08T07:43:56.106Z,21.30
2018-07-08T07:46:24.816Z,21.40
2018-07-08T07:48:53.863Z,21.30
2018-07-08T07:51:22.581Z,21.50
2018-07-08T07:53:51.199Z,21.60
2018-07-08T07:56:19.883Z,21.30
2018-07-08T07:58:48.544Z,21.80
2018-07-08T08:01:17.268Z,22.10
2018-07-08T08:03:45.952Z,21.70
2018-07-08T08:06:14.700Z,21.60
2018-07-08T08:08:43.426Z,21.80
2018-07-08T08:11:12.167Z,21.80
2018-07-08T08:13:52.179Z,21.80
2018-07-08T08:16:20.805Z,21.70
2018-07-08T08:18:49.782Z,21.90
2018-07-08T08:21:18.865Z,21.70
2018-07-08T08:23:47.583Z,21.50
2018-07-08T08:26:16.566Z,21.80
2018-07-08T08:28:45.233Z,22.00
2018-07-08T08:31:13.945Z,22.20
2018-07-08T08:33:42.861Z,22.00
2018-07-08T08:36:11.702Z,21.80
2018-07-08T08:38:40.376Z,21.90
2018-07-08T08:41:09.114Z,22.00
2018-07-08T08:43:37.882Z,22.10
2018-07-08T08:46:06.525Z,22.10
2018-07-08T08:48:35.476Z,22.30
2018-07-08T08:51:04.216Z,22.40
2018-07-08T08:53:32.905Z,22.20
2018-07-08T08:56:07.312Z,22.20
2018-07-08T08:58:36.074Z,22.20
2018-07-08T09:01:04.685Z,22.30
2018-07-08T09:03:33.344Z,22.50
2018-07-08T09:06:01.984Z,22.10
2018-07-08T09:08:30.628Z,22.10
2018-07-08T09:10:59.374Z,22.00
2018-07-08T09:13:29.541Z,22.30
2018-07-08T09:15:58.216Z,22.50
2018-07-08T09:18:26.880Z,22.50
2018-07-08T09:20:55.530Z,22.50
2018-07-08T09:23:24.226Z,22.60
2018-07-08T09:25:52.941Z,22.60
2018-07-08T09:28:21.607Z,22.60
2018-07-08T09:30:50.341Z,22.50
2018-07-08T09:33:19.216Z,22.60
2018-07-08T09:35:48.066Z,22.60
2018-07-08T09:38:16.850Z,22.60
2018-07-08T09:40:45.742Z,22.60
2018-07-08T09:43:14.531Z,22.80
2018-07-08T09:45:43.283Z,22.90
2018-07-08T09:48:11.924Z,23.00
2018-07-08T09:50:40.582Z,22.90
2018-07-08T09:53:09.396Z,22.70
2018-07-08T09:55:38.270Z,22.90
2018-07-08T09:58:07.007Z,22.70
2018-07-08T10:00:35.863Z,22.90
2018-07-08T10:03:04.520Z,22.90
2018-07-08T10:05:33.320Z,22.90
2018-07-08T10:08:01.986Z,22.90
2018-07-08T10:10:30.815Z,22.90
2018-07-08T10:12:59.501Z,22.90
2018-07-08T10:15:28.186Z,22.90
2018-07-08T10:17:56.872Z,22.60
2018-07-08T10:20:25.950Z,22.50
2018-07-08T10:22:54.555Z,22.50
2018-07-08T10:25:23.179Z,22.70
2018-07-08T10:28:04.520Z,22.50
2018-07-08T10:30:33.249Z,22.50
2018-07-08T10:33:01.995Z,22.50
2018-07-08T10:35:41.843Z,22.70
2018-07-08T10:38:10.898Z,22.90
2018-07-08T10:40:39.653Z,23.00
2018-07-08T10:43:08.413Z,23.10
2018-07-08T10:45:37.078Z,23.30
2018-07-08T10:48:05.888Z,23.50
2018-07-08T10:50:34.561Z,23.40
2018-07-08T10:53:03.273Z,23.50
2018-07-08T10:55:32.031Z,23.60
2018-07-08T10:58:00.722Z,23.50
2018-07-08T11:00:29.425Z,23.50
2018-07-08T11:02:58.230Z,23.50
2018-07-08T11:05:26.856Z,23.40
2018-07-08T11:07:56.057Z,23.50
2018-07-08T11:10:24.997Z,23.70
2018-07-08T11:12:53.819Z,23.80
2018-07-08T11:15:22.491Z,23.80
2018-07-08T11:17:51.430Z,23.70
2018-07-08T11:20:20.724Z,23.80
2018-07-08T11:22:49.396Z,23.60
2018-07-08T11:25:18.555Z,23.60
2018-07-08T11:27:47.275Z,23.60
2018-07-08T11:30:15.935Z,23.50
2018-07-08T11:32:44.665Z,23.50
2018-07-08T11:35:13.282Z,23.30
2018-07-08T11:37:41.947Z,23.40
2018-07-08T11:40:10.638Z,23.60
2018-07-08T11:42:39.296Z,23.70
2018-07-08T11:45:08.117Z,23.70
2018-07-08T11:47:36.758Z,23.60
2018-07-08T11:52:33.805Z,23.50
2018-07-08T11:55:02.496Z,23.60
2018-07-08T11:57:31.137Z,23.60
2018-07-08T11:59:59.788Z,23.50
2018-07-08T12:02:28.457Z,23.60
2018-07-08T12:04:57.139Z,23.80
2018-07-08T12:07:25.816Z,23.80
2018-07-08T12:09:54.583Z,23.80
2018-07-08T12:12:23.352Z,23.60
2018-07-08T12:14:52.058Z,23.60
2018-07-08T12:17:20.708Z,23.70
2018-07-08T12:19:49.408Z,23.80
2018-07-08T12:22:18.138Z,23.90
2018-07-08T12:24:47.258Z,23.90
2018-07-08T12:27:16.080Z,23.70
2018-07-08T12:29:44.741Z,23.70
2018-07-08T12:32:13.401Z,23.80
2018-07-08T12:34:42.097Z,23.70
2018-07-08T12:37:10.810Z,23.90
2018-07-08T12:39:39.504Z,23.80
2018-07-08T12:42:08.234Z,24.00
2018-07-08T12:44:37.083Z,23.80
2018-07-08T12:47:05.945Z,23.80
2018-07-08T12:49:34.704Z,23.90
2018-07-08T12:52:03.377Z,23.80
2018-07-08T12:54:32.090Z,23.70
2018-07-08T12:57:00.855Z,23.70
2018-07-08T12:59:29.595Z,23.80
2018-07-08T13:01:58.838Z,23.70
2018-07-08T13:04:27.561Z,23.80
2018-07-08T13:06:56.316Z,23.70
2018-07-08T13:09:25.002Z,23.90
2018-07-08T13:11:53.626Z,23.90
2018-07-08T13:14:22.276Z,24.10
2018-07-08T13:16:50.986Z,24.10
2018-07-08T13:19:19.697Z,23.90
2018-07-08T13:21:48.340Z,23.80
2018-07-08T13:24:17.061Z,23.70
2018-07-08T13:26:45.740Z,23.70
2018-07-08T13:29:14.421Z,23.60
2018-07-08T13:31:43.281Z,23.60
2018-07-08T13:34:11.945Z,23.70
2018-07-08T13:36:40.661Z,23.90
2018-07-08T13:39:10.364Z,23.90
2018-07-08T13:41:39.438Z,23.70
2018-07-08T13:44:08.394Z,23.70
2018-07-08T13:46:37.117Z,23.70
2018-07-08T13:49:05.832Z,23.80
2018-07-08T13:51:34.592Z,23.80
2018-07-08T13:54:03.265Z,23.90
2018-07-08T13:56:31.937Z,24.00
2018-07-08T13:59:00.666Z,24.10
2018-07-08T14:01:29.291Z,24.30
2018-07-08T14:03:57.917Z,24.40
2018-07-08T14:06:26.573Z,24.60
2018-07-08T14:08:55.289Z,24.60
2018-07-08T14:11:24.056Z,24.60
2018-07-08T14:13:52.819Z,24.50
2018-07-08T14:16:21.560Z,24.40
2018-07-08T14:18:50.224Z,24.10
2018-07-08T14:21:18.849Z,24.00
2018-07-08T14:23:47.536Z,23.90
2018-07-08T14:26:16.246Z,24.10
2018-07-08T14:28:44.964Z,24.40
2018-07-08T14:31:13.676Z,24.40
2018-07-08T14:33:42.312Z,24.40
2018-07-08T14:36:10.965Z,24.50
2018-07-08T14:38:39.629Z,24.60
2018-07-08T14:41:08.308Z,24.60
2018-07-08T14:43:37.005Z,24.70
2018-07-08T14:46:05.911Z,24.60
2018-07-08T14:48:34.549Z,24.60
2018-07-08T14:51:03.212Z,24.40
2018-07-08T14:53:31.956Z,24.40
2018-07-08T14:56:00.747Z,24.30
2018-07-08T14:58:29.498Z,24.30
2018-07-08T15:00:58.446Z,24.40
2018-07-08T15:03:27.128Z,24.50
2018-07-08T15:05:55.817Z,24.50
2018-07-08T15:08:24.497Z,24.50
2018-07-08T15:10:53.189Z,24.50
2018-07-08T15:13:21.848Z,24.50
2018-07-08T15:15:50.539Z,24.40
2018-07-08T15:18:19.189Z,24.50
2018-07-08T15:20:47.862Z,24.60
2018-07-08T15:23:16.620Z,24.60
2018-07-08T15:25:45.333Z,24.60
2018-07-08T15:28:14.112Z,24.60
2018-07-08T15:30:42.768Z,24.40
2018-07-08T15:33:11.929Z,24.40
2018-07-08T15:35:40.574Z,24.60
2018-07-08T15:38:09.481Z,24.60
2018-07-08T15:40:38.273Z,24.60
2018-07-08T15:43:06.956Z,24.60
2018-07-08T15:45:35.629Z,24.60
2018-07-08T15:48:04.317Z,24.60
2018-07-08T15:50:33.017Z,24.60
2018-07-08T15:53:01.905Z,24.60
2018-07-08T15:55:30.541Z,24.60
2018-07-08T15:57:59.235Z,24.60
2018-07-08T16:00:27.885Z,24.50
2018-07-08T16:02:56.548Z,24.50
2018-07-08T16:05:25.252Z,24.40
2018-07-08T16:07:53.910Z,24.30
2018-07-08T16:10:22.613Z,24.30
2018-07-08T16:12:52.133Z,24.40
2018-07-08T16:15:20.798Z,24.40
2018-07-08T16:17:49.541Z,24.40
2018-07-08T16:20:18.202Z,24.40
2018-07-08T16:22:47.963Z,24.50
2018-07-08T16:25:16.625Z,24.40
2018-07-08T16:27:45.360Z,24.40
2018-07-08T16:30:14.024Z,24.60
2018-07-08T16:32:42.664Z,24.60
2018-07-08T16:35:11.369Z,24.60
2018-07-08T16:37:40.002Z,24.60
2018-07-08T16:40:08.742Z,24.50
2018-07-08T16:42:37.494Z,24.50
2018-07-08T16:45:06.161Z,24.50
2018-07-08T16:47:34.857Z,24.50
2018-07-08T16:50:03.716Z,24.60
2018-07-08T16:52:32.661Z,24.50
2018-07-08T16:55:01.313Z,24.50
2018-07-08T16:57:29.948Z,24.40
2018-07-08T16:59:58.765Z,24.40
2018-07-08T17:02:27.548Z,24.40
2018-07-08T17:04:56.200Z,24.40
2018-07-08T17:07:25.076Z,24.40
2018-07-08T17:09:53.897Z,24.40
2018-07-08T17:12:22.613Z,24.30
2018-07-08T17:14:51.320Z,24.40
2018-07-08T17:17:20.110Z,24.40
2018-07-08T17:19:48.822Z,24.30
2018-07-08T17:22:17.563Z,24.20
2018-07-08T17:24:46.264Z,24.20
2018-07-08T17:27:14.961Z,24.30
2018-07-08T17:29:43.670Z,24.30
2018-07-08T17:32:12.611Z,24.30
2018-07-08T17:34:41.464Z,24.30
2018-07-08T17:37:10.265Z,24.30
2018-07-08T17:39:38.953Z,24.30
2018-07-08T17:42:07.699Z,24.30
2018-07-08T17:44:36.283Z,24.30
2018-07-08T17:47:04.962Z,24.30
2018-07-08T17:49:33.714Z,24.30
2018-07-08T17:52:02.386Z,24.30
2018-07-08T17:56:59.434Z,24.30
2018-07-08T17:59:29.250Z,24.30
2018-07-08T18:01:58.942Z,24.30
2018-07-08T18:04:28.499Z,24.30
2018-07-08T18:06:58.525Z,24.30
2018-07-08T18:09:29.254Z,24.30
2018-07-08T18:11:58.860Z,24.30
2018-07-08T18:14:28.484Z,24.30
2018-07-08T18:16:58.173Z,24.30
2018-07-08T18:19:28.500Z,24.30
2018-07-08T18:21:58.157Z,24.20
2018-07-08T18:24:27.727Z,24.20
2018-07-08T18:26:57.460Z,24.20
2018-07-08T18:31:56.609Z,24.20
2018-07-08T18:34:26.542Z,24.20
2018-07-08T18:36:56.534Z,24.20
2018-07-08T18:39:26.196Z,24.10
2018-07-08T18:41:56.110Z,24.00
2018-07-08T18:44:25.547Z,24.00
2018-07-08T18:46:55.617Z,24.00
2018-07-08T18:49:25.563Z,23.90
2018-07-08T18:51:55.372Z,23.90
2018-07-08T18:54:24.056Z,23.90
2018-07-08T18:56:53.060Z,23.90
2018-07-08T18:59:22.007Z,23.90
2018-07-08T19:01:50.723Z,23.90
2018-07-08T19:04:19.613Z,23.80
2018-07-08T19:06:48.317Z,23.80
2018-07-08T19:09:17.052Z,23.80
2018-07-08T19:14:14.287Z,23.80
2018-07-08T19:16:43.133Z,23.70
2018-07-08T19:19:12.142Z,23.70
2018-07-08T19:21:47.792Z,23.70
2018-07-08T19:24:16.818Z,23.60
2018-07-08T19:26:45.457Z,23.50
2018-07-08T19:29:14.260Z,23.40
2018-07-08T19:31:42.927Z,23.40
2018-07-08T19:34:11.666Z,23.40
2018-07-08T19:36:40.404Z,23.40
2018-07-08T19:39:10.191Z,23.30
2018-07-08T19:41:40.209Z,23.10
2018-07-08T19:44:09.002Z,23.00
2018-07-08T19:46:38.369Z,23.00
2018-07-08T19:49:07.088Z,22.90
2018-07-08T19:51:35.921Z,23.00
2018-07-08T19:54:04.731Z,23.10
2018-07-08T19:56:33.457Z,23.10
2018-07-08T19:59:02.142Z,23.10
2018-07-08T20:01:30.851Z,23.10
2018-07-08T20:03:59.516Z,23.00
2018-07-08T20:06:28.160Z,23.00
2018-07-08T20:08:56.976Z,23.20
2018-07-08T20:11:25.663Z,23.10
2018-07-08T20:13:54.368Z,23.20
2018-07-08T20:16:23.144Z,23.20
2018-07-08T20:18:51.809Z,23.10
2018-07-08T20:21:20.810Z,23.10
2018-07-08T20:23:49.343Z,23.10
2018-07-08T20:26:18.010Z,23.00
2018-07-08T20:28:46.733Z,23.00
2018-07-08T20:31:15.359Z,23.00
2018-07-08T20:33:44.065Z,23.00
2018-07-08T20:36:12.975Z,23.00
2018-07-08T20:38:41.733Z,23.10
2018-07-08T20:41:10.467Z,23.10
2018-07-08T20:43:39.196Z,23.10
2018-07-08T20:46:07.826Z,23.10
2018-07-08T20:48:36.976Z,23.10
2018-07-08T20:51:05.629Z,23.10
2018-07-08T20:53:34.282Z,23.10
2018-07-08T20:56:03.228Z,23.10
2018-07-08T20:58:32.005Z,23.10
2018-07-08T21:01:00.665Z,23.10
2018-07-08T21:03:29.567Z,23.10
2018-07-08T21:05:58.280Z,23.00
2018-07-08T21:08:27.454Z,22.90
2018-07-08T21:10:56.344Z,22.90
2018-07-08T21:13:25.035Z,22.90
2018-07-08T21:15:54.226Z,22.80
2018-07-08T21:18:23.160Z,22.80
2018-07-08T21:20:52.011Z,22.70
2018-07-08T21:25:49.292Z,22.60
2018-07-08T21:28:18.081Z,22.60
2018-07-08T21:30:46.772Z,22.50
2018-07-08T21:33:15.420Z,22.50
2018-07-08T21:35:44.247Z,22.50
2018-07-08T21:38:13.023Z,22.50
2018-07-08T21:40:42.017Z,22.50
2018-07-08T21:43:10.842Z,22.50
2018-07-08T21:45:39.696Z,22.50
2018-07-08T21:48:08.389Z,22.50
2018-07-08T21:50:37.206Z,22.50
2018-07-08T21:53:06.077Z,22.50
2018-07-08T21:55:34.772Z,22.40
2018-07-08T21:58:03.557Z,22.40
2018-07-08T22:00:33.179Z,22.40
2018-07-08T22:03:02.142Z,22.40
2018-07-08T22:05:31.978Z,22.40
2018-07-08T22:08:04.289Z,22.40
2018-07-08T22:10:33.745Z,22.40
2018-07-08T22:13:03.193Z,22.40
2018-07-08T22:18:00.299Z,22.40
2018-07-08T22:20:28.996Z,22.40
2018-07-08T22:22:57.748Z,22.30
2018-07-08T22:25:26.486Z,22.30
2018-07-08T22:27:55.252Z,22.30
2018-07-08T22:30:23.889Z,22.30
2018-07-08T22:32:52.623Z,22.30
2018-07-08T22:35:21.417Z,22.30
2018-07-08T22:37:50.248Z,22.30
2018-07-08T22:42:47.437Z,22.30
2018-07-08T22:45:16.155Z,22.30
2018-07-08T22:47:44.988Z,22.20
2018-07-08T22:50:13.750Z,22.30
2018-07-08T22:52:42.550Z,22.20
2018-07-08T22:55:11.281Z,22.30
2018-07-08T22:57:40.134Z,22.30
2018-07-08T23:00:19.982Z,22.30
2018-07-08T23:02:49.067Z,22.30
2018-07-08T23:05:17.748Z,22.30
2018-07-08T23:07:46.420Z,22.30
2018-07-08T23:10:15.120Z,22.30
2018-07-08T23:12:44.013Z,22.20
2018-07-08T23:15:12.886Z,22.30
2018-07-08T23:17:45.253Z,22.30
2018-07-08T23:20:14.148Z,22.20
2018-07-08T23:22:54.832Z,22.20
2018-07-08T23:25:23.571Z,22.20
2018-07-08T23:27:52.430Z,22.20
2018-07-08T23:30:21.133Z,22.20
2018-07-08T23:32:50.040Z,22.20
2018-07-08T23:35:19.240Z,22.20
2018-07-08T23:37:48.129Z,22.20
2018-07-08T23:40:16.916Z,22.20
2018-07-08T23:42:45.716Z,22.20
2018-07-08T23:45:19.614Z,22.20
2018-07-08T23:47:48.349Z,22.20
2018-07-08T23:50:17.024Z,22.20
2018-07-08T23:52:45.740Z,22.20
2018-07-08T23:55:14.446Z,22.30
2018-07-08T23:57:43.161Z,22.20
